Time;durP1;ratioP1;P1;durP2;ratioP2;P2;SDS_P1;SDS_P2;PMS_P1;PMS_P2;Temp;Humidity;BMP_temperature;BMP_pressure;BME280_temperature;BME280_humidity;BME280_pressure;Samples;Min_cycle;Max_cycle;Signal;HPM_P1;HPM_P2
2024/02/26 00:02:09;;;;;;;12.10;6.10;;;;;;;3.90;54.13;100833.90;109231;1254;62905;-83
2024/02/26 00:04:36;;;;;;;14.30;6.00;;;;;;;3.89;54.19;100836.55;109240;1254;57300;-82
2024/02/26 00:07:04;;;;;;;11.40;5.70;;;;;;;3.89;54.22;100835.70;109218;1254;62452;-83
2024/02/26 00:09:35;;;;;;;13.80;6.40;;;;;;;3.87;54.20;100825.66;109171;1254;57373;-83
2024/02/26 00:12:04;;;;;;;9.60;5.90;;;;;;;3.85;54.17;100823.10;109213;1254;57234;-82
2024/02/26 00:14:31;;;;;;;11.10;5.70;;;;;;;3.84;54.09;100820.20;109243;1254;64203;-81
2024/02/26 00:16:59;;;;;;;10.90;5.90;;;;;;;3.82;54.05;100817.48;109107;1254;57415;-82
2024/02/26 00:19:27;;;;;;;12.30;6.10;;;;;;;3.82;54.07;100815.62;109158;1254;64056;-82
2024/02/26 00:21:55;;;;;;;9.80;5.70;;;;;;;3.81;54.07;100816.19;109238;1257;57328;-81
2024/02/26 00:24:23;;;;;;;9.80;6.10;;;;;;;3.78;53.97;100812.65;109214;1254;57436;-79
2024/02/26 00:26:54;;;;;;;11.80;5.60;;;;;;;3.73;54.01;100829.06;109197;1254;64133;-81
2024/02/26 00:29:22;;;;;;;11.10;5.80;;;;;;;3.70;54.09;100838.25;109247;1254;58835;-83
2024/02/26 00:31:50;;;;;;;10.90;5.90;;;;;;;3.69;54.16;100827.00;109234;1254;63737;-84
2024/02/26 00:34:18;;;;;;;9.70;5.70;;;;;;;3.69;54.22;100822.07;109341;1256;57334;-81
2024/02/26 00:36:45;;;;;;;10.90;5.40;;;;;;;3.69;54.20;100817.89;109228;1254;57302;-81
2024/02/26 00:39:13;;;;;;;10.80;5.40;;;;;;;3.69;54.23;100814.27;109392;1254;62995;-78
2024/02/26 00:41:41;;;;;;;7.30;5.00;;;;;;;3.68;54.29;100814.12;109207;1254;58062;-81
2024/02/26 00:44:09;;;;;;;9.70;4.90;;;;;;;3.67;54.30;100821.84;109183;1254;63709;-82
2024/02/26 00:46:36;;;;;;;10.40;5.00;;;;;;;3.66;54.25;100820.31;109205;1254;57293;-82
2024/02/26 00:49:04;;;;;;;10.90;5.00;;;;;;;3.65;54.33;100814.77;109119;1257;57415;-80
2024/02/26 00:51:31;;;;;;;12.20;5.70;;;;;;;3.62;54.32;100812.45;109188;1256;62836;-79
2024/02/26 00:53:59;;;;;;;8.60;5.30;;;;;;;3.61;54.35;100808.89;109212;1256;58255;-79
2024/02/26 00:56:27;;;;;;;9.80;5.30;;;;;;;3.58;54.39;100803.61;109154;1256;63697;-79
2024/02/26 00:58:54;;;;;;;8.40;5.10;;;;;;;3.54;54.40;100801.86;109087;1257;57390;-78
2024/02/26 01:01:22;;;;;;;10.10;5.30;;;;;;;3.52;54.57;100804.02;109287;1256;57371;-77
2024/02/26 01:03:50;;;;;;;8.10;5.40;;;;;;;3.50;54.51;100798.91;109107;1256;62974;-77
2024/02/26 01:06:18;;;;;;;10.60;5.70;;;;;;;3.47;54.62;100795.90;109191;1256;58360;-78
2024/02/26 01:08:45;;;;;;;9.80;5.00;;;;;;;3.43;54.57;100792.38;109149;1256;62423;-77
2024/02/26 01:11:13;;;;;;;9.30;5.30;;;;;;;3.42;54.67;100792.13;109139;1256;58061;-78
2024/02/26 01:13:41;;;;;;;10.90;5.70;;;;;;;3.39;54.71;100786.84;109167;1255;58141;-78
2024/02/26 01:16:08;;;;;;;9.80;5.70;;;;;;;3.37;54.87;100778.55;109091;1256;65001;-77
2024/02/26 01:18:36;;;;;;;10.60;6.00;;;;;;;3.36;54.85;100788.52;109068;1256;60165;-80
2024/02/26 01:21:06;;;;;;;9.20;5.00;;;;;;;3.35;54.88;100785.08;109183;1256;63734;-79
2024/02/26 01:23:35;;;;;;;9.70;5.60;;;;;;;3.35;55.01;100778.48;109193;1256;58480;-82
2024/02/26 01:26:03;;;;;;;11.00;6.00;;;;;;;3.35;55.08;100788.56;109122;1256;58087;-77
2024/02/26 01:28:31;;;;;;;11.00;6.20;;;;;;;3.36;55.08;100788.51;109247;1256;64926;-81
2024/02/26 01:30:59;;;;;;;9.30;6.00;;;;;;;3.36;55.03;100787.64;109203;1256;58223;-81
2024/02/26 01:33:27;;;;;;;10.80;6.20;;;;;;;3.35;55.04;100781.45;109264;1256;62601;-81
2024/02/26 01:35:55;;;;;;;8.80;5.20;;;;;;;3.34;54.95;100777.83;109132;1257;58137;-84
2024/02/26 01:38:22;;;;;;;10.50;6.30;;;;;;;3.32;55.00;100777.57;109196;1256;58126;-82
2024/02/26 01:40:50;;;;;;;11.50;6.30;;;;;;;3.31;55.05;100771.38;109002;1256;64912;-80
2024/02/26 01:43:18;;;;;;;14.00;6.70;;;;;;;3.29;55.01;100774.05;109165;1256;58203;-79
2024/02/26 01:45:45;;;;;;;9.40;6.00;;;;;;;3.28;55.12;100774.60;109182;1255;63726;-79
2024/02/26 01:48:13;;;;;;;13.90;6.70;;;;;;;3.26;55.10;100775.04;109172;1259;58247;-78
2024/02/26 01:50:41;;;;;;;11.00;6.00;;;;;;;3.24;55.20;100773.55;109074;1257;58369;-79
2024/02/26 01:53:08;;;;;;;9.90;6.40;;;;;;;3.24;55.16;100780.54;109028;1257;63861;-80
2024/02/26 01:55:36;;;;;;;11.60;6.70;;;;;;;3.23;55.22;100784.23;109058;1257;58275;-81
2024/02/26 01:58:07;;;;;;;12.30;6.90;;;;;;;3.22;55.23;100782.53;109049;1257;63725;-81
2024/02/26 02:00:34;;;;;;;12.90;6.30;;;;;;;3.22;55.24;100779.91;109069;1257;58179;-81
2024/02/26 02:03:02;;;;;;;14.30;7.50;;;;;;;3.22;55.17;100775.74;109106;1257;58044;-75
2024/02/26 02:05:30;;;;;;;14.90;6.60;;;;;;;3.20;55.18;100767.13;108982;1257;63758;-81
2024/02/26 02:07:58;;;;;;;11.10;6.60;;;;;;;3.20;55.09;100765.05;109100;1257;58352;-81
2024/02/26 02:10:26;;;;;;;12.60;6.60;;;;;;;3.17;55.12;100766.88;108990;1257;63741;-80
2024/02/26 02:12:54;;;;;;;13.20;6.30;;;;;;;3.15;55.12;100767.67;108996;1259;58232;-81
2024/02/26 02:15:22;;;;;;;11.60;6.50;;;;;;;3.11;55.17;100765.74;109133;1257;58065;-81
2024/02/26 02:17:50;;;;;;;13.30;7.00;;;;;;;3.09;55.30;100763.23;109029;1258;65004;-79
2024/02/26 02:20:18;;;;;;;15.00;7.20;;;;;;;3.08;55.28;100758.41;109063;1257;58222;-79
2024/02/26 02:22:46;;;;;;;14.40;7.40;;;;;;;3.04;55.32;100756.85;109098;1258;63754;-77
2024/02/26 02:25:14;;;;;;;11.20;6.30;;;;;;;3.01;55.31;100757.85;109076;1257;58151;-77
2024/02/26 02:27:42;;;;;;;12.50;5.80;;;;;;;2.99;55.43;100758.11;109116;1259;58267;-76
2024/02/26 02:30:10;;;;;;;11.10;6.30;;;;;;;2.96;55.49;100761.16;109022;1257;64988;-75
2024/02/26 02:32:39;;;;;;;11.60;6.10;;;;;;;2.95;55.52;100763.66;109094;1257;58274;-75
2024/02/26 02:35:08;;;;;;;14.60;6.40;;;;;;;2.95;55.57;100766.46;109063;1259;62649;-76
2024/02/26 02:37:37;;;;;;;11.20;6.20;;;;;;;2.94;55.62;100766.69;109026;1257;58146;-75
2024/02/26 02:40:05;;;;;;;11.80;5.70;;;;;;;2.93;55.66;100768.79;109075;1258;58062;-76
2024/02/26 02:42:33;;;;;;;13.40;6.20;;;;;;;2.92;55.64;100765.36;109101;1257;64889;-76
2024/02/26 02:45:01;;;;;;;15.10;5.90;;;;;;;2.90;55.68;100764.06;109178;1258;58254;-77
2024/02/26 02:47:29;;;;;;;16.10;6.60;;;;;;;2.87;55.75;100762.73;109037;1257;62432;-78
2024/02/26 02:49:57;;;;;;;9.10;5.60;;;;;;;2.88;55.69;100764.11;108924;1259;58227;-79
2024/02/26 02:52:26;;;;;;;12.80;6.40;;;;;;;2.88;55.67;100770.02;109035;1257;58502;-78
2024/02/26 02:54:54;;;;;;;10.40;6.30;;;;;;;2.88;55.80;100778.90;108970;1259;65009;-78
2024/02/26 02:57:21;;;;;;;13.60;5.50;;;;;;;2.87;55.74;100785.38;109085;1258;58346;-79
2024/02/26 02:59:49;;;;;;;11.80;6.20;;;;;;;2.83;55.72;100789.00;108939;1257;63779;-78
2024/02/26 03:02:17;;;;;;;10.70;5.90;;;;;;;2.81;55.82;100788.77;108982;1257;58145;-77
2024/02/26 03:04:46;;;;;;;11.20;5.90;;;;;;;2.79;55.82;100783.95;109056;1257;58217;-77
2024/02/26 03:07:13;;;;;;;10.40;6.00;;;;;;;2.77;55.92;100779.16;109108;1257;65178;-79
2024/02/26 03:09:41;;;;;;;11.30;6.00;;;;;;;2.77;56.01;100779.17;109124;1257;58693;-79
2024/02/26 03:12:09;;;;;;;10.50;6.00;;;;;;;2.78;56.01;100777.75;109044;1258;63731;-80
2024/02/26 03:14:37;;;;;;;12.90;6.30;;;;;;;2.77;56.05;100778.48;109055;1257;58156;-79
2024/02/26 03:17:04;;;;;;;13.60;6.30;;;;;;;2.77;56.16;100779.88;109046;1257;58210;-78
2024/02/26 03:19:32;;;;;;;12.40;6.80;;;;;;;2.79;56.19;100773.52;109128;1257;64956;-79
2024/02/26 03:22:00;;;;;;;10.60;5.70;;;;;;;2.80;56.16;100776.45;109116;1257;58209;-76
2024/02/26 03:24:28;;;;;;;11.30;6.10;;;;;;;2.80;56.19;100780.63;109104;1257;63369;-79
2024/02/26 03:26:56;;;;;;;14.00;6.50;;;;;;;2.79;56.17;100781.34;109104;1258;58170;-79
2024/02/26 03:29:24;;;;;;;11.10;5.70;;;;;;;2.77;56.21;100780.54;109033;1259;58275;-79
2024/02/26 03:31:51;;;;;;;9.60;5.70;;;;;;;2.77;56.19;100776.23;109126;1257;64970;-80
2024/02/26 03:34:19;;;;;;;12.70;6.40;;;;;;;2.74;56.29;100775.48;109150;1257;58221;-76
2024/02/26 03:36:48;;;;;;;9.80;5.60;;;;;;;2.71;56.33;100778.21;109065;1257;62769;-77
2024/02/26 03:39:24;;;;;;;12.30;6.20;;;;;;;2.69;56.36;100777.43;109020;1257;58195;-77
2024/02/26 03:42:16;;;;;;;11.90;6.50;;;;;;;2.65;56.39;100772.89;108972;1257;58106;-77
2024/02/26 03:44:51;;;;;;;14.60;6.50;;;;;;;2.64;56.55;100769.64;108967;1257;66997;-76
2024/02/26 03:47:22;;;;;;;10.70;6.00;;;;;;;2.64;56.62;100778.17;108903;1257;58334;-76
2024/02/26 03:49:52;;;;;;;12.00;6.50;;;;;;;2.63;56.68;100780.80;109098;1259;63766;-76
2024/02/26 03:52:23;;;;;;;11.40;6.20;;;;;;;2.62;56.71;100779.99;108891;1259;58167;-76
2024/02/26 03:54:54;;;;;;;12.10;6.70;;;;;;;2.60;56.82;100778.81;108930;1259;58163;-76
2024/02/26 03:57:24;;;;;;;14.50;6.20;;;;;;;2.59;56.89;100775.71;108898;1259;63869;-76
2024/02/26 03:59:55;;;;;;;11.80;6.60;;;;;;;2.58;56.93;100772.27;108924;1259;58254;-77
2024/02/26 04:02:26;;;;;;;10.10;6.10;;;;;;;2.57;56.95;100769.52;108938;1258;63678;-76
2024/02/26 04:04:59;;;;;;;12.80;6.70;;;;;;;2.57;57.02;100771.96;108998;1257;58095;-76
2024/02/26 04:07:29;;;;;;;12.90;6.80;;;;;;;2.59;57.09;100767.19;108924;1260;58173;-76
2024/02/26 04:09:58;;;;;;;12.20;5.90;;;;;;;2.59;57.07;100766.48;109084;1258;63661;-80
2024/02/26 04:12:31;;;;;;;13.00;6.30;;;;;;;2.59;57.06;100763.55;109107;1258;58273;-80
2024/02/26 04:15:03;;;;;;;12.80;6.90;;;;;;;2.58;57.21;100767.93;109093;1259;63778;-79
2024/02/26 04:17:34;;;;;;;12.20;6.10;;;;;;;2.57;57.17;100766.94;109097;1257;58075;-80
2024/02/26 04:20:05;;;;;;;15.50;6.70;;;;;;;2.57;57.13;100768.67;109100;1258;58138;-80
2024/02/26 04:22:35;;;;;;;10.40;6.00;;;;;;;2.57;57.17;100772.33;108988;1259;64954;-78
2024/02/26 04:25:05;;;;;;;11.30;6.60;;;;;;;2.57;57.11;100771.63;109132;1258;58186;-78
2024/02/26 04:27:35;;;;;;;12.60;6.20;;;;;;;2.57;57.19;100775.11;109083;1258;63807;-79
2024/02/26 04:30:07;;;;;;;13.40;6.40;;;;;;;2.57;57.30;100775.45;109028;1259;58412;-78
2024/02/26 04:32:38;;;;;;;13.20;7.30;;;;;;;2.57;57.27;100778.92;109066;1258;58245;-78
2024/02/26 04:35:11;;;;;;;14.40;7.00;;;;;;;2.56;57.24;100783.65;109122;1259;65056;-79
2024/02/26 04:37:41;;;;;;;15.50;7.80;;;;;;;2.55;57.31;100782.67;109047;1259;58165;-79
2024/02/26 04:40:13;;;;;;;13.70;7.40;;;;;;;2.53;57.36;100782.40;109039;1259;63817;-79
2024/02/26 04:42:43;;;;;;;13.90;7.20;;;;;;;2.53;57.43;100787.80;108973;1259;58160;-79
2024/02/26 04:45:13;;;;;;;13.50;7.20;;;;;;;2.53;57.52;100792.13;109111;1259;58268;-79
2024/02/26 04:47:43;;;;;;;13.60;7.20;;;;;;;2.55;57.58;100788.79;109062;1260;64900;-78
2024/02/26 04:56:28;;;;;;;10.60;6.10;;;;;;;2.61;57.67;100790.95;102710;1292;609281;-83
2024/02/26 04:58:55;;;;;;;18.30;6.90;;;;;;;2.59;57.72;100790.66;105419;1267;59337;-82
2024/02/26 05:01:22;;;;;;;10.30;6.50;;;;;;;2.58;57.75;100791.05;105431;1262;59388;-82
2024/02/26 05:03:49;;;;;;;16.00;7.20;;;;;;;2.56;57.74;100790.98;105501;1264;63423;-83
2024/02/26 05:06:16;;;;;;;13.60;7.00;;;;;;;2.55;57.86;100792.94;105778;1258;59231;-82
2024/02/26 05:08:43;;;;;;;15.90;7.40;;;;;;;2.55;57.91;100798.15;105237;1261;235617;-82
2024/02/26 05:11:11;;;;;;;13.50;6.90;;;;;;;2.54;57.95;100799.41;105586;1260;59343;-81
2024/02/26 05:13:38;;;;;;;13.50;6.90;;;;;;;2.52;57.95;100802.95;105650;1257;59352;-82
2024/02/26 05:16:05;;;;;;;13.20;6.80;;;;;;;2.51;58.03;100804.73;105754;1259;63521;-82
2024/02/26 05:18:31;;;;;;;14.70;6.70;;;;;;;2.51;58.17;100801.60;105720;1259;59158;-82
2024/02/26 05:20:59;;;;;;;14.60;7.10;;;;;;;2.53;58.13;100805.55;105752;1257;64169;-80
2024/02/26 05:23:26;;;;;;;16.70;6.90;;;;;;;2.54;58.09;100804.61;105767;1258;59756;-82
2024/02/26 05:25:53;;;;;;;11.80;6.60;;;;;;;2.57;58.16;100810.58;105603;1254;59753;-82
2024/02/26 05:28:20;;;;;;;12.40;7.20;;;;;;;2.59;58.25;100811.88;105584;1263;64450;-79
2024/02/26 05:30:47;;;;;;;14.00;7.40;;;;;;;2.61;58.22;100813.75;105660;1257;59697;-86
2024/02/26 05:33:13;;;;;;;15.20;7.30;;;;;;;2.61;58.08;100814.97;106150;1255;62715;-80
2024/02/26 05:35:44;;;;;;;13.80;6.80;;;;;;;2.60;58.08;100816.38;105997;1257;59647;-79
2024/02/26 05:38:11;;;;;;;12.40;6.50;;;;;;;2.57;57.92;100815.25;106061;1257;60051;-79
2024/02/26 05:40:38;;;;;;;12.60;7.50;;;;;;;2.53;57.99;100823.77;106041;1254;64278;-80
2024/02/26 05:43:05;;;;;;;13.90;6.60;;;;;;;2.48;58.03;100823.45;105707;1254;59565;-80
2024/02/26 05:45:32;;;;;;;13.50;7.00;;;;;;;2.46;58.13;100824.08;105849;1257;62818;-82
2024/02/26 05:47:59;;;;;;;13.60;6.90;;;;;;;2.44;58.11;100817.89;105811;1254;59640;-85
2024/02/26 05:50:27;;;;;;;12.70;6.20;;;;;;;2.42;58.14;100818.83;105957;1261;59644;-84
2024/02/26 05:52:54;;;;;;;12.80;6.50;;;;;;;2.40;58.12;100819.06;105583;1254;64427;-75
2024/02/26 05:55:21;;;;;;;14.40;6.80;;;;;;;2.38;58.14;100825.25;106218;1254;60083;-73
2024/02/26 05:57:49;;;;;;;11.70;6.40;;;;;;;2.34;58.18;100833.55;106636;1259;65962;-72
2024/02/26 06:00:16;;;;;;;13.00;6.50;;;;;;;2.32;58.25;100835.36;105794;1257;59699;-77
2024/02/26 06:02:43;;;;;;;20.80;8.00;;;;;;;2.30;58.39;100830.55;105732;1254;59781;-74
2024/02/26 06:05:10;;;;;;;16.50;7.10;;;;;;;2.28;58.36;100827.67;105681;1254;64242;-78
2024/02/26 06:07:36;;;;;;;17.50;7.50;;;;;;;2.27;58.38;100827.91;105741;1258;59580;-77
2024/02/26 06:10:04;;;;;;;12.30;7.20;;;;;;;2.25;58.42;100827.10;105683;1259;64109;-74
2024/02/26 06:12:32;;;;;;;16.70;8.00;;;;;;;2.23;58.46;100827.21;105835;1258;59524;-75
2024/02/26 06:15:01;;;;;;;13.90;7.30;;;;;;;2.20;58.55;100829.21;105927;1254;59623;-78
2024/02/26 06:17:28;;;;;;;15.20;7.20;;;;;;;2.18;58.59;100827.04;105615;1254;64411;-74
2024/02/26 06:19:55;;;;;;;16.00;7.20;;;;;;;2.17;58.64;100822.74;105576;1260;59672;-75
2024/02/26 06:22:21;;;;;;;19.90;8.00;;;;;;;2.15;58.70;100824.02;105635;1254;63985;-75
2024/02/26 06:24:48;;;;;;;14.00;7.90;;;;;;;2.13;58.78;100826.71;105596;1263;59651;-75
2024/02/26 06:27:15;;;;;;;21.40;8.30;;;;;;;2.11;58.88;100827.64;105820;1254;59542;-73
2024/02/26 06:29:42;;;;;;;16.70;8.10;;;;;;;2.10;58.96;100829.94;105500;1264;67816;-73
2024/02/26 06:32:09;;;;;;;16.80;7.80;;;;;;;2.09;58.90;100826.66;105642;1254;59663;-75
2024/02/26 06:34:38;;;;;;;20.40;9.00;;;;;;;2.10;58.99;100820.55;105703;1254;66070;-73
2024/02/26 06:37:06;;;;;;;16.70;7.70;;;;;;;2.14;59.09;100817.63;105701;1257;59755;-74
2024/02/26 06:39:33;;;;;;;16.00;7.60;;;;;;;2.18;59.16;100814.19;105641;1260;59577;-74
2024/02/26 06:42:01;;;;;;;13.90;7.50;;;;;;;2.22;59.20;100813.50;105921;1254;65201;-74
2024/02/26 06:44:34;;;;;;;15.90;7.00;;;;;;;2.27;59.08;100820.96;105676;1260;59742;-73
2024/02/26 06:47:01;;;;;;;12.60;7.00;;;;;;;2.30;58.99;100825.35;105435;1254;63804;-75
2024/02/26 06:49:28;;;;;;;17.70;7.20;;;;;;;2.36;59.01;100825.33;105854;1254;59627;-75
2024/02/26 06:51:55;;;;;;;18.40;7.40;;;;;;;2.42;59.06;100820.73;105615;1254;59669;-72
2024/02/26 06:54:22;;;;;;;11.90;6.20;;;;;;;2.51;58.91;100819.52;105672;1257;64362;-72
2024/02/26 06:56:49;;;;;;;12.20;6.50;;;;;;;2.59;58.85;100820.41;106010;1255;59669;-72
2024/02/26 06:59:16;;;;;;;14.80;6.90;;;;;;;2.67;58.58;100817.69;105645;1257;64874;-72
2024/02/26 07:01:43;;;;;;;13.10;6.40;;;;;;;2.73;58.57;100820.21;105863;1257;59734;-73
2024/02/26 07:04:10;;;;;;;15.20;7.20;;;;;;;2.78;58.46;100814.92;105753;1254;59657;-73
2024/02/26 07:06:37;;;;;;;14.60;7.00;;;;;;;2.82;58.28;100817.75;105621;1257;66106;-74
2024/02/26 07:09:04;;;;;;;14.50;6.60;;;;;;;2.88;58.25;100818.55;105782;1257;59664;-72
2024/02/26 07:11:32;;;;;;;11.60;6.70;;;;;;;2.97;58.24;100810.91;105486;1255;65933;-70
2024/02/26 07:13:59;;;;;;;11.60;6.70;;;;;;;3.03;57.95;100807.68;105610;1254;59666;-72
2024/02/26 07:16:27;;;;;;;17.00;7.20;;;;;;;3.07;57.83;100808.38;105518;1254;59237;-74
2024/02/26 07:18:53;;;;;;;12.80;6.20;;;;;;;3.12;57.84;100808.52;105686;1259;66205;-75
2024/02/26 07:21:21;;;;;;;15.20;6.80;;;;;;;3.20;57.68;100808.02;105547;1261;59657;-71
2024/02/26 07:23:47;;;;;;;13.70;6.30;;;;;;;3.28;57.65;100812.38;105759;1254;65583;-71
2024/02/26 07:26:14;;;;;;;16.30;6.40;;;;;;;3.37;57.56;100811.65;105577;1260;59685;-71
2024/02/26 07:28:41;;;;;;;11.30;6.40;;;;;;;3.42;57.23;100810.19;105539;1254;59653;-70
2024/02/26 07:31:08;;;;;;;13.40;6.40;;;;;;;3.46;57.06;100805.00;105692;1260;66145;-71
2024/02/26 07:33:36;;;;;;;15.80;6.80;;;;;;;3.51;56.98;100807.42;105634;1257;67160;-75
2024/02/26 07:36:03;;;;;;;14.20;6.50;;;;;;;3.54;56.81;100807.77;105477;1254;65709;-71
2024/02/26 07:38:31;;;;;;;14.40;6.80;;;;;;;3.58;56.80;100808.83;105584;1259;59605;-72
2024/02/26 07:41:09;;;;;;;15.10;6.40;;;;;;;3.64;56.76;100807.17;105637;1261;59662;-75
2024/02/26 07:43:36;;;;;;;17.70;7.20;;;;;;;3.69;56.69;100804.02;105554;1257;65954;-74
2024/02/26 07:46:03;;;;;;;16.60;7.20;;;;;;;3.73;56.67;100810.94;105715;1254;59902;-73
2024/02/26 07:48:30;;;;;;;16.40;7.20;;;;;;;3.79;56.63;100810.16;105634;1255;63898;-76
2024/02/26 07:50:59;;;;;;;13.40;6.70;;;;;;;3.87;56.70;100814.00;105721;1255;59652;-75
2024/02/26 07:53:26;;;;;;;15.90;6.30;;;;;;;3.97;56.61;100809.90;105771;1254;59658;-71
2024/02/26 07:55:53;;;;;;;14.70;6.30;;;;;;;4.04;56.42;100802.39;105877;1257;66202;-71
2024/02/26 07:58:36;;;;;;;18.00;6.60;;;;;;;4.10;56.27;100800.02;105843;1254;60508;-72
2024/02/26 08:01:03;;;;;;;24.00;7.20;;;;;;;4.16;56.23;100797.65;105803;1254;64607;-71
2024/02/26 08:03:30;;;;;;;28.70;8.30;;;;;;;4.26;56.20;100798.09;105713;1254;62080;-71
2024/02/26 08:05:57;;;;;;;17.20;6.90;;;;;;;4.36;56.15;100789.08;105635;1258;59743;-71
2024/02/26 08:08:24;;;;;;;15.20;7.30;;;;;;;4.45;55.98;100784.13;105781;1254;65159;-75
2024/02/26 08:10:51;;;;;;;13.80;6.30;;;;;;;4.53;55.87;100779.54;105713;1254;60421;-71
2024/02/26 08:13:18;;;;;;;15.60;7.10;;;;;;;4.63;55.59;100784.83;105860;1254;65576;-71
2024/02/26 08:15:44;;;;;;;19.90;7.60;;;;;;;4.71;55.61;100787.59;105874;1257;59745;-71
2024/02/26 08:18:11;;;;;;;17.70;7.10;;;;;;;4.80;55.55;100780.14;105754;1253;60020;-71
2024/02/26 08:20:38;;;;;;;15.00;6.60;;;;;;;4.89;55.31;100772.55;105817;1257;66312;-71
2024/02/26 08:23:05;;;;;;;12.40;5.90;;;;;;;4.96;55.07;100777.80;105920;1256;59657;-72
2024/02/26 08:25:32;;;;;;;13.40;6.30;;;;;;;5.01;55.07;100776.65;105603;1260;66003;-74
2024/02/26 08:27:59;;;;;;;15.10;6.70;;;;;;;5.10;55.14;100779.85;105702;1254;59651;-70
2024/02/26 08:30:25;;;;;;;15.00;6.00;;;;;;;5.21;54.89;100778.65;105737;1254;60261;-71
2024/02/26 08:32:53;;;;;;;14.30;6.00;;;;;;;5.28;54.60;100777.91;105777;1254;66217;-70
2024/02/26 08:35:20;;;;;;;16.40;6.60;;;;;;;5.32;54.46;100774.23;105790;1254;60041;-76
2024/02/26 08:37:47;;;;;;;15.60;6.90;;;;;;;5.38;54.46;100774.10;105669;1256;65706;-78
2024/02/26 08:40:14;;;;;;;16.30;6.30;;;;;;;5.48;54.64;100777.20;105687;1254;59738;-76
2024/02/26 08:42:41;;;;;;;16.00;6.10;;;;;;;5.60;54.33;100767.69;105700;1257;59644;-79
2024/02/26 08:45:09;;;;;;;14.00;6.40;;;;;;;5.66;54.03;100763.19;105475;1255;65918;-79
2024/02/26 08:47:36;;;;;;;27.50;7.70;;;;;;;5.72;53.97;100766.73;105496;1262;59744;-79
2024/02/26 08:50:04;;;;;;;18.00;7.30;;;;;;;5.77;53.92;100761.39;105636;1254;65597;-79
2024/02/26 08:52:33;;;;;;;14.10;6.40;;;;;;;5.85;53.90;100768.09;105794;1257;59701;-77
2024/02/26 08:55:00;;;;;;;19.70;6.70;;;;;;;5.95;53.75;100772.14;105792;1257;59618;-79
2024/02/26 08:57:27;;;;;;;18.00;6.60;;;;;;;6.03;53.56;100771.87;105729;1257;63987;-83
2024/02/26 08:59:55;;;;;;;23.00;8.20;;;;;;;6.11;53.42;100761.16;105739;1254;60265;-78
2024/02/26 09:02:22;;;;;;;21.10;6.80;;;;;;;6.20;53.39;100755.74;105652;1257;64587;-80
2024/02/26 09:04:50;;;;;;;17.80;7.30;;;;;;;6.32;53.36;100754.93;105710;1257;60368;-79
2024/02/26 09:07:19;;;;;;;19.80;7.80;;;;;;;6.46;53.26;100758.34;105739;1257;60445;-79
2024/02/26 09:09:46;;;;;;;15.60;7.00;;;;;;;6.57;52.81;100755.96;105495;1256;66751;-81
2024/02/26 09:12:13;;;;;;;23.90;7.30;;;;;;;6.65;52.60;100756.73;105706;1253;60531;-79
2024/02/26 09:14:40;;;;;;;13.80;6.60;;;;;;;6.71;52.46;100755.11;105454;1260;65471;-79
2024/02/26 09:17:07;;;;;;;20.20;6.80;;;;;;;6.80;52.34;100764.05;105538;1260;60822;-78
2024/02/26 09:19:34;;;;;;;15.50;6.70;;;;;;;6.88;52.25;100760.30;105671;1254;60483;-80
2024/02/26 09:22:02;;;;;;;19.20;6.20;;;;;;;6.95;52.44;100763.38;105569;1258;67147;-82
2024/02/26 09:24:29;;;;;;;16.60;6.40;;;;;;;7.02;52.57;100761.21;105799;1257;60323;-84
2024/02/26 09:26:56;;;;;;;13.80;5.60;;;;;;;7.04;52.42;100759.67;105722;1254;65855;-81
2024/02/26 09:29:23;;;;;;;12.50;5.80;;;;;;;7.03;52.47;100760.97;105673;1256;60560;-79
2024/02/26 09:31:50;;;;;;;14.80;6.00;;;;;;;7.04;52.52;100766.33;105859;1253;60486;-81
2024/02/26 09:34:17;;;;;;;15.30;6.20;;;;;;;7.06;52.59;100763.94;105909;1254;67755;-79
2024/02/26 09:36:44;;;;;;;12.20;5.70;;;;;;;7.10;52.64;100764.59;105647;1256;60453;-79
2024/02/26 09:39:11;;;;;;;13.90;5.80;;;;;;;7.14;52.70;100762.79;105878;1256;62860;-80
2024/02/26 09:41:38;;;;;;;10.60;5.00;;;;;;;7.19;52.56;100769.34;105672;1257;60312;-85
2024/02/26 09:44:05;;;;;;;19.40;6.20;;;;;;;7.21;52.58;100770.27;105844;1254;60474;-79
2024/02/26 09:46:33;;;;;;;15.30;5.70;;;;;;;7.26;52.67;100769.95;105488;1254;65773;-81
2024/02/26 09:49:00;;;;;;;15.80;5.70;;;;;;;7.35;52.65;100771.04;105696;1254;60355;-77
2024/02/26 09:51:28;;;;;;;15.60;5.80;;;;;;;7.44;52.76;100769.77;105606;1256;64569;-81
2024/02/26 09:53:55;;;;;;;17.70;5.70;;;;;;;7.54;52.62;100767.94;105590;1259;60459;-79
2024/02/26 09:56:22;;;;;;;10.50;5.60;;;;;;;7.59;52.18;100769.02;105706;1258;60463;-83
2024/02/26 09:58:53;;;;;;;12.60;5.30;;;;;;;7.64;52.19;100764.34;105795;1254;64872;-85
2024/02/26 10:01:20;;;;;;;12.70;4.70;;;;;;;7.77;52.20;100762.64;105463;1254;60505;-85
2024/02/26 10:03:56;;;;;;;16.70;5.50;;;;;;;7.92;51.87;100757.70;105708;1253;73060;-81
2024/02/26 10:06:26;;;;;;;10.80;5.50;;;;;;;8.02;51.41;100759.67;105833;1260;60481;-86
2024/02/26 10:08:53;;;;;;;16.40;6.60;;;;;;;8.08;51.33;100762.52;106017;1253;60454;-77
2024/02/26 10:11:19;;;;;;;16.00;5.80;;;;;;;8.14;51.32;100759.98;105583;1256;74142;-80
2024/02/26 10:13:46;;;;;;;14.00;5.80;;;;;;;8.24;51.15;100758.29;105687;1254;68496;-81
2024/02/26 10:16:13;;;;;;;14.70;5.10;;;;;;;8.30;50.87;100753.86;105817;1254;66205;-77
2024/02/26 10:18:50;;;;;;;13.30;5.00;;;;;;;8.38;50.85;100754.64;105713;1257;60444;-77
2024/02/26 10:21:26;;;;;;;13.60;5.40;;;;;;;8.49;50.66;100750.42;105566;1263;60457;-80
2024/02/26 10:23:54;;;;;;;9.80;4.80;;;;;;;8.48;50.43;100751.20;105415;1261;73921;-76
2024/02/26 10:26:21;;;;;;;12.90;5.30;;;;;;;8.45;50.40;100751.39;105816;1254;60431;-81
2024/02/26 10:28:49;;;;;;;15.60;5.00;;;;;;;8.46;50.67;100750.60;105881;1254;64680;-81
2024/02/26 10:31:21;;;;;;;16.60;5.00;;;;;;;8.52;50.73;100743.88;105616;1254;60630;-80
2024/02/26 10:33:48;;;;;;;17.60;5.20;;;;;;;8.61;50.85;100742.09;105801;1257;60351;-82
2024/02/26 10:36:15;;;;;;;13.00;4.90;;;;;;;8.71;50.52;100739.52;105636;1261;67085;-81
2024/02/26 10:38:43;;;;;;;11.00;5.00;;;;;;;8.76;50.45;100741.61;105618;1254;60568;-83
2024/02/26 10:41:14;;;;;;;14.20;4.80;;;;;;;8.84;50.22;100743.34;105531;1254;65807;-81
2024/02/26 10:43:43;;;;;;;11.80;4.90;;;;;;;8.94;50.04;100740.64;105788;1255;60333;-81
2024/02/26 10:46:10;;;;;;;14.70;4.50;;;;;;;9.00;49.83;100741.23;105905;1254;60424;-78
2024/02/26 10:48:37;;;;;;;22.00;4.90;;;;;;;9.05;49.60;100739.67;106050;1256;67114;-81
2024/02/26 10:51:04;;;;;;;13.50;5.00;;;;;;;9.10;49.49;100739.69;105796;1254;60476;-75
2024/02/26 10:53:31;;;;;;;15.00;4.80;;;;;;;9.09;49.25;100740.13;105726;1254;72812;-80
2024/02/26 10:56:03;;;;;;;16.50;5.40;;;;;;;9.06;49.24;100738.23;105513;1260;60400;-77
2024/02/26 10:58:31;;;;;;;15.90;5.00;;;;;;;9.01;49.31;100737.66;105728;1254;60685;-76
2024/02/26 11:00:58;;;;;;;11.60;5.10;;;;;;;8.95;49.32;100733.52;105789;1255;65818;-76
2024/02/26 11:03:26;;;;;;;17.60;6.10;;;;;;;8.91;49.56;100728.01;105909;1254;66262;-80
2024/02/26 11:05:53;;;;;;;17.60;5.90;;;;;;;8.95;49.71;100722.44;105660;1259;65765;-78
2024/02/26 11:08:21;;;;;;;18.90;6.70;;;;;;;9.05;49.51;100718.23;105624;1254;60554;-77
2024/02/26 11:10:48;;;;;;;14.20;5.60;;;;;;;9.14;49.21;100717.48;106030;1254;60477;-79
2024/02/26 11:13:18;;;;;;;15.90;6.50;;;;;;;9.15;49.00;100721.40;105816;1254;65636;-77
2024/02/26 11:15:48;;;;;;;20.80;6.50;;;;;;;9.19;49.06;100722.59;105933;1259;60451;-77
2024/02/26 11:18:16;;;;;;;13.60;6.30;;;;;;;9.22;48.91;100722.77;105904;1256;65846;-75
2024/02/26 11:20:43;;;;;;;16.00;5.90;;;;;;;9.23;48.63;100721.65;105837;1252;60370;-77
2024/02/26 11:23:11;;;;;;;16.40;6.20;;;;;;;9.21;48.51;100721.75;105745;1254;60470;-77
2024/02/26 11:25:39;;;;;;;15.20;6.30;;;;;;;9.16;48.38;100719.77;105847;1256;65651;-78
2024/02/26 11:28:12;;;;;;;13.90;6.50;;;;;;;9.09;48.28;100720.06;105850;1253;60502;-78